createdAt,value
2022-12-27T00:00:07.937Z,1.30
2022-12-27T00:02:40.794Z,2.17
2022-12-27T00:05:14.149Z,0.98
2022-12-27T00:07:42.267Z,1.27
2022-12-27T00:10:10.441Z,1.00
2022-12-27T00:12:40.278Z,0.82
2022-12-27T00:15:10.852Z,0.80
2022-12-27T00:17:37.501Z,0.70
2022-12-27T00:20:11.070Z,1.15
2022-12-27T00:22:49.949Z,0.93
2022-12-27T00:25:18.901Z,0.60
2022-12-27T00:27:45.629Z,0.80
2022-12-27T00:30:15.302Z,0.70
2022-12-27T00:32:45.799Z,0.47
2022-12-27T00:35:12.445Z,0.73
2022-12-27T00:37:43.062Z,0.60
2022-12-27T00:40:10.459Z,0.73
2022-12-27T00:42:39.258Z,0.63
2022-12-27T00:45:06.475Z,0.40
2022-12-27T00:47:39.614Z,0.68
2022-12-27T00:50:12.094Z,0.60
2022-12-27T00:52:39.098Z,0.90
2022-12-27T00:55:09.230Z,0.70
2022-12-27T00:57:37.206Z,0.95
2022-12-27T01:00:12.207Z,0.70
2022-12-27T01:02:40.094Z,0.90
2022-12-27T01:05:07.461Z,0.60
2022-12-27T01:07:44.239Z,0.90
2022-12-27T01:10:12.031Z,0.55
2022-12-27T01:12:43.892Z,0.93
2022-12-27T01:15:10.771Z,1.00
2022-12-27T01:17:37.611Z,0.70
2022-12-27T01:20:04.951Z,0.90
2022-12-27T01:22:34.926Z,0.90
2022-12-27T01:25:04.435Z,0.88
2022-12-27T01:27:31.267Z,1.05
2022-12-27T01:30:01.136Z,1.10
2022-12-27T01:32:34.827Z,0.80
2022-12-27T01:35:02.018Z,0.80
2022-12-27T01:37:33.226Z,1.25
2022-12-27T01:40:00.117Z,1.02
2022-12-27T01:42:46.966Z,1.00
2022-12-27T01:45:17.268Z,0.60
2022-12-27T01:47:44.964Z,0.85
2022-12-27T01:50:33.456Z,0.88
2022-12-27T01:53:15.309Z,1.17
2022-12-27T01:59:02.001Z,0.88
2022-12-27T02:01:37.756Z,1.10
2022-12-27T02:04:06.849Z,1.42
2022-12-27T02:06:39.322Z,0.93
2022-12-27T02:09:29.467Z,0.95
2022-12-27T02:12:36.365Z,1.23
2022-12-27T02:15:04.756Z,0.90
2022-12-27T02:17:36.412Z,1.08
2022-12-27T02:20:17.708Z,1.15
2022-12-27T02:23:39.715Z,1.30
2022-12-27T02:26:45.905Z,0.80
2022-12-27T02:36:05.422Z,0.80
2022-12-27T02:38:42.526Z,1.02
2022-12-27T02:41:30.089Z,0.95
2022-12-27T02:44:16.257Z,1.05
2022-12-27T02:47:06.392Z,0.82
2022-12-27T02:53:08.434Z,0.88
2022-12-27T02:56:20.682Z,1.10
2022-12-27T02:58:53.131Z,1.00
2022-12-27T03:02:16.682Z,1.00
2022-12-27T03:05:17.484Z,0.90
2022-12-27T03:08:11.543Z,0.90
2022-12-27T03:11:03.046Z,0.98
2022-12-27T03:13:56.558Z,1.05
2022-12-27T03:16:55.172Z,1.00
2022-12-27T03:19:52.440Z,1.15
2022-12-27T03:22:40.071Z,0.80
2022-12-27T03:25:26.744Z,1.30
2022-12-27T03:28:20.007Z,1.10
2022-12-27T03:31:09.733Z,1.23
2022-12-27T03:33:39.133Z,1.08
2022-12-27T03:36:34.528Z,0.90
2022-12-27T03:39:18.554Z,1.40
2022-12-27T03:42:11.911Z,1.73
2022-12-27T03:44:42.489Z,1.10
2022-12-27T03:47:35.867Z,1.73
2022-12-27T03:50:07.749Z,1.80
2022-12-27T03:52:50.904Z,1.17
2022-12-27T03:55:17.767Z,1.20
2022-12-27T03:57:45.517Z,1.42
2022-12-27T04:00:12.982Z,1.08
2022-12-27T04:02:45.603Z,1.25
2022-12-27T04:05:12.623Z,1.23
2022-12-27T04:07:57.894Z,1.30
2022-12-27T04:10:46.599Z,1.20
2022-12-27T04:13:34.491Z,1.05
2022-12-27T04:16:19.858Z,1.38
2022-12-27T04:19:08.585Z,1.42
2022-12-27T04:21:53.825Z,1.13
2022-12-27T04:24:42.388Z,1.20
2022-12-27T04:27:28.561Z,1.08
2022-12-27T04:30:14.706Z,0.90
2022-12-27T04:32:59.714Z,1.05
2022-12-27T04:35:29.722Z,1.10
2022-12-27T04:37:57.548Z,1.10
2022-12-27T04:40:43.824Z,1.30
2022-12-27T04:43:31.390Z,1.23
2022-12-27T04:46:19.093Z,0.90
2022-12-27T04:49:05.695Z,0.93
2022-12-27T04:51:50.852Z,2.10
2022-12-27T04:54:41.697Z,1.65
2022-12-27T04:57:20.735Z,5.93
2022-12-27T05:00:07.421Z,4.82
2022-12-27T05:02:34.321Z,3.33
2022-12-27T05:05:01.639Z,4.40
2022-12-27T05:07:50.690Z,2.20
2022-12-27T05:10:38.882Z,1.52
2022-12-27T05:13:31.288Z,1.90
2022-12-27T05:16:01.662Z,1.63
2022-12-27T05:18:28.631Z,1.63
2022-12-27T05:21:01.945Z,1.20
2022-12-27T05:23:49.685Z,1.48
2022-12-27T05:26:26.598Z,1.38
2022-12-27T05:28:57.732Z,0.90
2022-12-27T05:31:26.835Z,1.20
2022-12-27T05:33:56.237Z,1.45
2022-12-27T05:36:27.751Z,1.20
2022-12-27T05:38:54.968Z,1.40
2022-12-27T05:41:24.731Z,1.45
2022-12-27T05:43:56.027Z,1.10
2022-12-27T05:46:25.181Z,1.30
2022-12-27T05:48:51.946Z,1.40
2022-12-27T05:51:24.446Z,1.30
2022-12-27T05:53:51.205Z,1.20
2022-12-27T05:56:22.324Z,1.30
2022-12-27T05:58:54.494Z,1.77
2022-12-27T06:01:21.403Z,2.10
2022-12-27T06:03:48.173Z,3.03
2022-12-27T06:06:17.956Z,2.13
2022-12-27T06:08:44.822Z,1.55
2022-12-27T06:11:17.436Z,1.88
2022-12-27T06:13:52.490Z,1.60
2022-12-27T06:16:23.148Z,2.15
2022-12-27T06:18:50.150Z,2.35
2022-12-27T06:21:19.713Z,2.22
2022-12-27T06:23:47.714Z,2.33
2022-12-27T06:26:20.414Z,2.05
2022-12-27T06:31:16.644Z,2.45
2022-12-27T06:33:43.582Z,2.65
2022-12-27T06:36:13.378Z,2.50
2022-12-27T06:38:40.653Z,2.30
2022-12-27T06:41:14.041Z,2.72
2022-12-27T06:43:40.884Z,2.67
2022-12-27T06:46:17.594Z,3.25
2022-12-27T06:48:48.760Z,4.43
2022-12-27T06:51:18.423Z,3.63
2022-12-27T06:53:47.154Z,3.72
2022-12-27T06:56:16.972Z,2.80
2022-12-27T06:58:44.567Z,2.38
2022-12-27T07:01:16.539Z,5.07
2022-12-27T07:03:43.774Z,7.13
2022-12-27T07:06:11.055Z,7.13
2022-12-27T07:08:42.347Z,8.32
2022-12-27T07:11:11.413Z,6.85
2022-12-27T07:13:43.984Z,6.90
2022-12-27T07:16:13.840Z,7.18
2022-12-27T07:18:45.249Z,7.28
2022-12-27T07:21:14.937Z,5.05
2022-12-27T07:24:09.350Z,4.90
2022-12-27T07:26:36.115Z,5.63
2022-12-27T07:29:02.763Z,5.80
2022-12-27T07:31:31.597Z,6.90
2022-12-27T07:34:03.243Z,6.07
2022-12-27T07:36:38.219Z,9.93
2022-12-27T07:39:06.363Z,9.32
2022-12-27T07:41:36.599Z,8.93
2022-12-27T07:44:07.302Z,8.32
2022-12-27T07:46:34.756Z,6.15
2022-12-27T07:49:07.656Z,4.32
2022-12-27T07:51:39.787Z,4.38
2022-12-27T07:54:06.593Z,4.75
2022-12-27T07:56:35.487Z,3.92
2022-12-27T07:59:02.328Z,3.42
2022-12-27T08:01:54.634Z,3.30
2022-12-27T08:04:22.519Z,3.17
2022-12-27T08:06:51.019Z,2.50
2022-12-27T08:09:26.046Z,2.33
2022-12-27T08:11:52.925Z,1.92
2022-12-27T08:14:21.704Z,1.77
2022-12-27T08:16:49.568Z,1.65
2022-12-27T08:19:21.061Z,1.90
2022-12-27T08:21:47.734Z,1.33
2022-12-27T08:24:24.334Z,1.23
2022-12-27T08:26:53.331Z,1.13
2022-12-27T08:29:23.403Z,0.88
2022-12-27T08:31:50.090Z,1.23
2022-12-27T08:34:24.200Z,1.20
2022-12-27T08:36:57.067Z,1.10
2022-12-27T08:39:33.021Z,1.10
2022-12-27T08:41:59.693Z,0.93
2022-12-27T08:44:26.721Z,1.50
2022-12-27T08:46:53.354Z,1.70
2022-12-27T08:49:20.398Z,1.27
2022-12-27T08:52:14.783Z,1.42
2022-12-27T08:54:44.531Z,1.40
2022-12-27T08:57:14.982Z,2.10
2022-12-27T08:59:41.680Z,1.35
2022-12-27T09:02:10.720Z,1.10
2022-12-27T09:04:40.589Z,1.65
2022-12-27T09:07:07.961Z,1.85
2022-12-27T09:09:35.211Z,1.95
2022-12-27T09:12:04.062Z,1.60
2022-12-27T09:14:34.887Z,1.55
2022-12-27T09:17:01.530Z,1.55
2022-12-27T09:19:28.252Z,1.30
2022-12-27T09:21:54.941Z,1.10
2022-12-27T09:24:22.513Z,1.10
2022-12-27T09:26:54.985Z,1.30
2022-12-27T09:29:26.500Z,0.88
2022-12-27T09:31:57.167Z,1.08
2022-12-27T09:34:23.910Z,1.45
2022-12-27T09:36:54.013Z,1.45
2022-12-27T09:39:21.838Z,1.50
2022-12-27T09:44:55.933Z,1.15
2022-12-27T09:47:43.550Z,1.40
2022-12-27T09:50:20.860Z,2.53
2022-12-27T09:53:27.031Z,0.88
2022-12-27T09:56:00.125Z,1.40
2022-12-27T09:58:47.348Z,1.15
2022-12-27T10:01:35.295Z,1.50
2022-12-27T10:04:04.347Z,1.30
2022-12-27T10:06:48.996Z,1.38
2022-12-27T10:09:21.723Z,1.92
2022-12-27T10:15:00.318Z,1.10
2022-12-27T10:17:29.795Z,2.08
2022-12-27T10:20:16.091Z,1.35
2022-12-27T10:22:48.804Z,1.13
2022-12-27T10:27:50.072Z,0.95
2022-12-27T10:30:21.205Z,1.05
2022-12-27T10:32:49.070Z,0.90
2022-12-27T10:35:21.914Z,1.27
2022-12-27T10:37:50.153Z,1.20
2022-12-27T10:40:25.532Z,1.05
2022-12-27T10:43:04.382Z,1.30
2022-12-27T10:45:34.070Z,1.10
2022-12-27T10:48:28.855Z,0.90
2022-12-27T10:51:08.477Z,1.30
2022-12-27T10:53:47.535Z,1.08
2022-12-27T10:56:20.422Z,1.20
2022-12-27T10:58:56.482Z,1.45
2022-12-27T11:01:30.363Z,0.85
2022-12-27T11:04:22.847Z,1.30
2022-12-27T11:06:59.196Z,1.30
2022-12-27T11:09:33.215Z,1.10
2022-12-27T11:12:21.080Z,1.05
2022-12-27T11:15:22.160Z,1.45
2022-12-27T11:17:53.131Z,1.60
2022-12-27T11:20:38.231Z,1.77
2022-12-27T11:23:17.873Z,0.98
2022-12-27T11:25:58.122Z,1.92
2022-12-27T11:28:27.867Z,1.67
2022-12-27T11:31:07.704Z,1.73
2022-12-27T11:33:45.654Z,1.67
2022-12-27T11:36:40.100Z,0.85
2022-12-27T11:39:15.390Z,0.90
2022-12-27T11:41:53.594Z,0.90
2022-12-27T11:44:33.349Z,1.27
2022-12-27T11:47:25.685Z,1.38
2022-12-27T11:50:29.407Z,1.25
2022-12-27T11:53:33.824Z,1.48
2022-12-27T11:56:27.337Z,1.70
2022-12-27T11:58:59.956Z,1.40
2022-12-27T12:01:38.343Z,2.33
2022-12-27T12:04:24.468Z,5.18
2022-12-27T12:06:58.395Z,8.30
2022-12-27T12:09:46.407Z,3.55
2022-12-27T12:12:51.190Z,1.45
2022-12-27T12:15:27.080Z,2.88
2022-12-27T12:18:05.813Z,1.95
2022-12-27T12:21:00.806Z,1.40
2022-12-27T12:23:52.333Z,1.50
2022-12-27T12:26:25.151Z,1.38
2022-12-27T12:29:10.678Z,1.67
2022-12-27T12:32:05.603Z,1.20
2022-12-27T12:35:00.966Z,1.83
2022-12-27T12:37:46.400Z,1.27
2022-12-27T12:40:30.953Z,1.00
2022-12-27T12:43:22.566Z,1.58
2022-12-27T12:46:11.719Z,0.93
2022-12-27T12:48:57.050Z,1.00
2022-12-27T12:51:38.853Z,1.15
2022-12-27T12:54:55.480Z,1.02
2022-12-27T12:57:54.874Z,1.13
2022-12-27T13:00:36.500Z,1.02
2022-12-27T13:03:32.580Z,1.10
2022-12-27T13:06:11.271Z,1.33
2022-12-27T13:08:53.956Z,1.40
2022-12-27T13:11:23.925Z,1.90
2022-12-27T13:14:28.986Z,1.13
2022-12-27T13:17:08.255Z,1.30
2022-12-27T13:19:48.014Z,1.20
2022-12-27T13:22:40.051Z,1.42
2022-12-27T13:25:25.815Z,1.50
2022-12-27T13:28:17.332Z,1.25
2022-12-27T13:30:58.987Z,1.40
2022-12-27T13:34:15.374Z,1.08
2022-12-27T13:37:00.782Z,1.60
2022-12-27T13:39:55.661Z,1.70
2022-12-27T13:42:47.289Z,1.10
2022-12-27T13:45:42.236Z,1.55
2022-12-27T13:48:27.144Z,1.35
2022-12-27T13:51:30.887Z,1.13
2022-12-27T13:54:04.113Z,1.10
2022-12-27T13:56:54.498Z,1.35
2022-12-27T13:59:48.260Z,1.00
2022-12-27T14:03:04.422Z,1.00
2022-12-27T14:06:01.345Z,1.13
2022-12-27T14:08:48.934Z,1.08
2022-12-27T14:11:43.964Z,1.13
2022-12-27T14:14:15.743Z,0.85
2022-12-27T14:17:12.312Z,0.90
2022-12-27T14:19:39.160Z,1.13
2022-12-27T14:22:21.325Z,1.20
2022-12-27T14:25:08.212Z,1.40
2022-12-27T14:27:47.119Z,0.90
2022-12-27T14:30:36.112Z,1.58
2022-12-27T14:33:31.471Z,1.17
2022-12-27T14:36:16.760Z,1.10
2022-12-27T14:42:00.923Z,1.02
2022-12-27T14:54:09.414Z,1.52
2022-12-27T14:59:29.147Z,2.00
2022-12-27T15:02:22.501Z,1.23
2022-12-27T15:05:15.921Z,1.30
2022-12-27T15:08:14.261Z,1.00
2022-12-27T15:11:12.178Z,1.33
2022-12-27T15:14:10.763Z,1.42
2022-12-27T15:16:45.684Z,2.10
2022-12-27T15:19:21.340Z,5.07
2022-12-27T15:21:50.789Z,7.18
2022-12-27T15:24:35.616Z,5.30
2022-12-27T15:27:39.940Z,3.58
2022-12-27T15:30:46.561Z,5.82
2022-12-27T15:33:45.383Z,12.95
2022-12-27T15:36:20.475Z,11.95
2022-12-27T15:38:54.800Z,11.23
2022-12-27T15:41:57.079Z,11.50
2022-12-27T15:44:44.661Z,10.63
2022-12-27T15:47:29.452Z,10.30
2022-12-27T15:50:18.960Z,9.20
2022-12-27T15:52:52.566Z,9.43
2022-12-27T15:55:58.815Z,6.72
2022-12-27T15:58:28.305Z,8.35
2022-12-27T16:01:23.879Z,9.95
2022-12-27T16:03:53.743Z,10.98
2022-12-27T16:06:35.821Z,10.13
2022-12-27T16:09:29.740Z,9.57
2022-12-27T16:12:05.054Z,11.48
2022-12-27T16:14:35.692Z,14.68
2022-12-27T16:17:24.062Z,12.57
2022-12-27T16:20:12.697Z,13.35
2022-12-27T16:30:57.903Z,7.90
2022-12-27T16:33:32.656Z,10.38
2022-12-27T16:36:16.890Z,12.13
2022-12-27T16:38:56.720Z,13.38
2022-12-27T16:41:58.915Z,15.02
2022-12-27T16:44:25.763Z,14.73
2022-12-27T16:47:07.455Z,12.15
2022-12-27T16:50:06.023Z,9.55
2022-12-27T16:52:53.290Z,6.53
2022-12-27T16:55:52.151Z,6.32
2022-12-27T16:58:32.909Z,9.63
2022-12-27T17:01:02.395Z,13.27
2022-12-27T17:03:47.744Z,13.32
2022-12-27T17:06:34.660Z,11.48
2022-12-27T17:09:10.806Z,12.05
2022-12-27T17:11:49.670Z,16.90
2022-12-27T17:14:19.810Z,15.00
2022-12-27T17:16:53.993Z,14.55
2022-12-27T17:19:45.927Z,11.82
2022-12-27T17:22:16.531Z,10.65
2022-12-27T17:24:45.584Z,11.30
2022-12-27T17:27:21.302Z,11.63
2022-12-27T17:30:04.517Z,10.95
2022-12-27T17:32:56.072Z,11.77
2022-12-27T17:35:28.980Z,16.00
2022-12-27T17:37:58.682Z,13.30
2022-12-27T17:41:02.900Z,10.77
2022-12-27T17:44:18.774Z,9.63
2022-12-27T17:47:26.771Z,10.45
2022-12-27T17:49:57.190Z,11.15
2022-12-27T17:52:45.318Z,10.48
2022-12-27T17:55:43.353Z,15.30
2022-12-27T17:58:12.558Z,14.43
2022-12-27T18:00:51.829Z,14.32
2022-12-27T18:03:18.926Z,15.18
2022-12-27T18:05:46.594Z,13.95
2022-12-27T18:08:27.375Z,12.60
2022-12-27T18:13:30.650Z,13.25
2022-12-27T18:15:57.956Z,20.45
2022-12-27T18:18:35.779Z,11.00
2022-12-27T18:21:06.406Z,9.57
2022-12-27T18:23:42.060Z,9.70
2022-12-27T18:26:13.785Z,22.42
2022-12-27T18:28:41.885Z,17.52
2022-12-27T18:31:12.569Z,14.13
2022-12-27T18:33:57.967Z,13.73
2022-12-27T18:36:49.779Z,13.25
2022-12-27T18:39:24.681Z,12.32
2022-12-27T18:41:53.668Z,11.05
2022-12-27T18:44:27.367Z,10.38
2022-12-27T18:47:00.398Z,10.90
2022-12-27T18:49:31.634Z,11.82
2022-12-27T18:51:58.920Z,10.95
2022-12-27T18:54:28.494Z,9.25
2022-12-27T18:56:56.820Z,8.98
2022-12-27T18:59:32.193Z,8.93
2022-12-27T19:02:01.576Z,8.05
2022-12-27T19:04:32.350Z,7.43
2022-12-27T19:07:15.185Z,8.43
2022-12-27T19:09:50.253Z,6.07
2022-12-27T19:12:27.349Z,9.10
2022-12-27T19:14:54.247Z,8.95
2022-12-27T19:17:29.893Z,11.45
2022-12-27T19:20:07.530Z,19.45
2022-12-27T19:22:34.148Z,17.50
2022-12-27T19:25:23.967Z,23.05
2022-12-27T19:28:24.865Z,20.90
2022-12-27T19:31:20.752Z,20.10
2022-12-27T19:33:50.278Z,18.50
2022-12-27T19:36:24.086Z,19.02
2022-12-27T19:38:50.772Z,15.90
2022-12-27T19:41:17.516Z,15.63
2022-12-27T19:43:46.090Z,15.63
2022-12-27T19:46:13.895Z,18.08
2022-12-27T19:49:07.711Z,21.00
2022-12-27T19:51:35.494Z,20.13
2022-12-27T19:54:13.216Z,18.52
2022-12-27T19:56:43.283Z,21.30
2022-12-27T19:59:19.167Z,21.35
2022-12-27T20:01:46.330Z,26.85
2022-12-27T20:04:15.075Z,37.03
2022-12-27T20:06:45.134Z,36.85
2022-12-27T20:09:17.672Z,31.98
2022-12-27T20:11:44.726Z,40.58
2022-12-27T20:14:13.693Z,41.38
2022-12-27T20:16:41.354Z,51.95
2022-12-27T20:19:11.030Z,43.22
2022-12-27T20:21:42.472Z,38.42
2022-12-27T20:24:14.319Z,39.78
2022-12-27T20:26:41.897Z,47.33
2022-12-27T20:29:10.475Z,39.53
2022-12-27T20:31:44.586Z,44.00
2022-12-27T20:34:15.241Z,37.67
2022-12-27T20:36:42.088Z,38.58
2022-12-27T20:39:08.906Z,30.35
2022-12-27T20:41:38.110Z,26.65
2022-12-27T20:44:05.036Z,28.00
2022-12-27T20:46:31.854Z,25.17
2022-12-27T20:49:00.419Z,23.08
2022-12-27T20:51:30.964Z,21.55
2022-12-27T20:54:01.810Z,22.02
2022-12-27T20:56:28.809Z,31.35
2022-12-27T20:58:55.567Z,29.27
2022-12-27T21:01:26.321Z,30.80
2022-12-27T21:03:56.845Z,33.03
2022-12-27T21:06:28.775Z,30.42
2022-12-27T21:08:58.023Z,28.77
2022-12-27T21:11:29.576Z,26.75
2022-12-27T21:14:00.040Z,28.45
2022-12-27T21:16:28.397Z,23.65
2022-12-27T21:18:56.996Z,23.70
2022-12-27T21:21:27.957Z,24.45
2022-12-27T21:23:56.972Z,26.98
2022-12-27T21:26:28.398Z,25.42
2022-12-27T21:28:56.194Z,26.05
2022-12-27T21:31:25.631Z,24.17
2022-12-27T21:33:52.546Z,24.85
2022-12-27T21:36:21.712Z,26.58
2022-12-27T21:41:39.673Z,27.65
2022-12-27T21:44:08.902Z,28.60
2022-12-27T21:46:43.144Z,27.77
2022-12-27T21:49:13.141Z,25.48
2022-12-27T21:51:43.426Z,26.88
2022-12-27T21:54:12.810Z,27.67
2022-12-27T21:56:42.228Z,30.93
2022-12-27T21:59:11.675Z,27.52
2022-12-27T22:01:50.369Z,26.52
2022-12-27T22:04:24.632Z,25.80
2022-12-27T22:06:51.300Z,26.63
2022-12-27T22:09:18.335Z,25.23
2022-12-27T22:11:47.476Z,22.45
2022-12-27T22:14:19.544Z,20.15
2022-12-27T22:16:48.551Z,21.77
2022-12-27T22:19:15.221Z,18.45
2022-12-27T22:21:44.186Z,15.73
2022-12-27T22:24:18.395Z,13.77
2022-12-27T22:26:47.596Z,11.85
2022-12-27T22:29:17.022Z,11.60
2022-12-27T22:31:43.804Z,12.57
2022-12-27T22:34:11.570Z,10.73
2022-12-27T22:36:38.257Z,10.43
2022-12-27T22:39:05.992Z,12.40
2022-12-27T22:41:34.722Z,12.07
2022-12-27T22:44:06.384Z,11.70
2022-12-27T22:47:06.886Z,10.02
2022-12-27T22:49:25.879Z,10.75
2022-12-27T22:51:52.562Z,6.30
2022-12-27T22:54:19.336Z,5.75
2022-12-27T22:56:47.157Z,4.97
2022-12-27T22:59:18.466Z,5.43
2022-12-27T23:01:45.469Z,10.68
2022-12-27T23:04:13.343Z,9.75
2022-12-27T23:06:41.930Z,8.30
2022-12-27T23:09:09.064Z,6.18
2022-12-27T23:11:40.088Z,6.30
2022-12-27T23:14:11.685Z,5.95
2022-12-27T23:16:44.239Z,6.03
2022-12-27T23:19:15.699Z,5.28
2022-12-27T23:21:42.357Z,3.83
2022-12-27T23:24:11.929Z,4.10
2022-12-27T23:26:41.247Z,4.43
2022-12-27T23:29:09.908Z,4.57
2022-12-27T23:31:36.657Z,3.47
2022-12-27T23:34:27.741Z,4.22
2022-12-27T23:36:57.116Z,4.13
2022-12-27T23:39:23.926Z,3.38
2022-12-27T23:41:53.276Z,3.15
2022-12-27T23:44:26.660Z,4.95
2022-12-27T23:47:04.730Z,3.95
2022-12-27T23:49:31.465Z,5.55
2022-12-27T23:52:02.043Z,5.78
2022-12-27T23:54:28.840Z,5.28
2022-12-27T23:56:55.510Z,3.92
2022-12-27T23:59:22.053Z,4.05
